Time;durP1;ratioP1;P1;durP2;ratioP2;P2;SDS_P1;SDS_P2;PMS_P1;PMS_P2;Temp;Humidity;BMP_temperature;BMP_pressure;BME280_temperature;BME280_humidity;BME280_pressure;Samples;Min_cycle;Max_cycle;Signal;HPM_P1;HPM_P2
2022/07/13 00:01:10;;;;;;;;;5.75;5.75;;;;;28.03;28.41;101786.22;5097455;27;45253;-61
2022/07/13 00:03:36;;;;;;;;;5.00;5.00;;;;;28.03;28.38;101790.84;5097427;27;45504;-59
2022/07/13 00:06:02;;;;;;;;;9.00;6.75;;;;;27.97;28.73;101786.31;5097072;27;45998;-59
2022/07/13 00:08:27;;;;;;;;;4.25;4.25;;;;;27.95;28.90;101792.03;5097127;27;45368;-59
2022/07/13 00:10:52;;;;;;;;;4.25;4.00;;;;;27.92;28.69;101794.41;5099891;27;45550;-59
2022/07/13 00:13:18;;;;;;;;;8.00;6.25;;;;;27.91;28.62;101795.47;5101125;27;45325;-60
2022/07/13 00:15:43;;;;;;;;;4.50;4.50;;;;;27.88;28.69;101791.31;5100865;27;46398;-61
2022/07/13 00:18:08;;;;;;;;;6.50;6.00;;;;;27.74;28.68;101773.47;5100429;27;45372;-60
2022/07/13 00:20:34;;;;;;;;;6.25;5.50;;;;;27.81;29.06;101791.44;5100699;27;45337;-59
2022/07/13 00:22:59;;;;;;;;;7.75;5.25;;;;;27.75;28.80;101788.81;5100843;27;45242;-59
2022/07/13 00:25:25;;;;;;;;;5.50;4.25;;;;;27.77;28.90;101789.38;5100195;27;46279;-59
2022/07/13 00:27:50;;;;;;;;;8.25;5.00;;;;;27.73;28.82;101785.47;5100244;27;45475;-59
2022/07/13 00:30:15;;;;;;;;;8.25;6.25;;;;;27.70;29.29;101784.00;5100383;27;45421;-60
2022/07/13 00:32:41;;;;;;;;;7.00;6.00;;;;;27.67;28.98;101776.28;5100453;27;45430;-59
2022/07/13 00:35:07;;;;;;;;;4.00;4.00;;;;;27.69;29.23;101784.25;5100300;27;45862;-61
2022/07/13 00:37:32;;;;;;;;;6.25;5.25;;;;;27.68;29.01;101786.13;5099774;27;45421;-59
2022/07/13 00:39:58;;;;;;;;;5.00;5.00;;;;;27.68;29.34;101782.56;5098900;27;45371;-59
2022/07/13 00:42:23;;;;;;;;;8.50;6.50;;;;;27.67;29.23;101780.91;5100299;27;45296;-59
2022/07/13 00:44:48;;;;;;;;;6.00;4.50;;;;;27.64;29.11;101778.63;5099792;27;46145;-59
2022/07/13 00:47:15;;;;;;;;;7.00;6.00;;;;;27.61;29.08;101778.06;5100078;27;45923;-59
2022/07/13 00:49:41;;;;;;;;;5.60;5.60;;;;;27.58;29.30;101775.78;5099938;27;45358;-60
2022/07/13 00:52:07;;;;;;;;;6.00;5.00;;;;;27.47;29.18;101756.63;5100123;27;45470;-59
2022/07/13 00:54:33;;;;;;;;;5.00;5.00;;;;;27.52;29.11;101771.28;5099851;27;45429;-59
2022/07/13 00:57:01;;;;;;;;;7.00;5.20;;;;;27.46;29.58;101760.44;5099724;27;45119;-60
2022/07/13 00:59:26;;;;;;;;;5.40;5.40;;;;;27.48;29.44;101763.78;5099903;27;45430;-59
2022/07/13 01:01:54;;;;;;;;;10.25;7.00;;;;;27.47;29.91;101764.81;5100065;27;45380;-59
2022/07/13 01:04:26;;;;;;;;;6.60;6.00;;;;;27.45;29.74;101762.34;5099677;27;46043;-59
2022/07/13 01:06:54;;;;;;;;;6.00;5.00;;;;;27.43;29.87;101763.63;5099767;27;45399;-59
2022/07/13 01:09:20;;;;;;;;;6.60;5.60;;;;;27.40;29.59;101754.00;5099732;27;45774;-60
2022/07/13 01:11:45;;;;;;;;;6.20;4.80;;;;;27.28;29.79;101742.22;5099965;27;45460;-58
2022/07/13 01:14:13;;;;;;;;;5.75;5.75;;;;;27.34;30.11;101753.03;5099476;27;45892;-59
2022/07/13 01:16:39;;;;;;;;;7.60;5.20;;;;;27.32;30.18;101757.06;5099188;27;45256;-58
2022/07/13 01:19:06;;;;;;;;;6.25;4.75;;;;;27.24;30.07;101743.75;5099753;27;45442;-60
2022/07/13 01:21:35;;;;;;;;;6.80;6.60;;;;;27.29;30.47;101765.72;5099528;27;45393;-61
2022/07/13 01:24:00;;;;;;;;;6.20;6.00;;;;;27.29;30.68;101768.47;5099240;27;46144;-61
2022/07/13 01:26:26;;;;;;;;;6.50;5.50;;;;;27.23;30.83;101748.38;5099433;27;45295;-59
2022/07/13 01:28:51;;;;;;;;;9.75;6.50;;;;;27.24;30.61;101758.25;5115230;27;45304;-60
2022/07/13 01:31:36;;;;;;;;;7.25;7.25;;;;;27.22;31.02;101759.53;5099264;27;45418;-60
2022/07/13 01:34:02;;;;;;;;;7.40;5.60;;;;;27.19;31.02;101762.75;5099251;27;45474;-60
2022/07/13 01:36:28;;;;;;;;;8.60;6.40;;;;;27.17;31.22;101762.97;5099273;27;45224;-61
2022/07/13 01:38:55;;;;;;;;;8.00;6.75;;;;;27.18;31.65;101763.78;5099418;27;45371;-60
2022/07/13 01:41:21;;;;;;;;;6.60;6.00;;;;;27.17;31.38;101759.41;5099707;27;45413;-60
2022/07/13 01:43:49;;;;;;;;;6.80;6.00;;;;;27.02;31.47;101741.50;5098836;27;45759;-58
2022/07/13 01:46:15;;;;;;;;;6.00;6.00;;;;;27.08;31.45;101754.22;5098818;27;45427;-59
2022/07/13 01:48:40;;;;;;;;;7.75;7.00;;;;;27.06;31.93;101747.34;5099172;27;45344;-60
2022/07/13 01:51:06;;;;;;;;;7.25;6.75;;;;;27.01;31.38;101760.84;5099103;27;45486;-58
2022/07/13 01:53:31;;;;;;;;;7.00;7.00;;;;;26.64;31.54;101705.50;5098969;27;45366;-60
2022/07/13 01:55:56;;;;;;;;;9.00;7.00;;;;;26.90;32.01;101759.75;5098695;27;45311;-58
2022/07/13 01:58:22;;;;;;;;;7.50;6.75;;;;;26.81;32.31;101744.75;5099026;27;45218;-59
2022/07/13 02:00:47;;;;;;;;;6.75;6.00;;;;;26.80;32.28;101754.84;5098948;27;45434;-60
2022/07/13 02:03:13;;;;;;;;;6.50;5.00;;;;;26.78;32.71;101753.41;5097160;27;45994;-59
2022/07/13 02:05:38;;;;;;;;;6.50;5.75;;;;;26.72;32.45;101752.44;5098907;27;45289;-59
2022/07/13 02:08:04;;;;;;;;;9.25;8.00;;;;;26.69;33.21;101746.59;5098661;27;45383;-61
2022/07/13 02:10:35;;;;;;;;;7.00;5.75;;;;;26.54;33.03;101725.97;5098933;27;45224;-59
2022/07/13 02:13:05;;;;;;;;;8.40;6.00;;;;;26.62;33.27;101738.47;5098635;27;46011;-60
2022/07/13 02:15:31;;;;;;;;;8.00;6.40;;;;;26.66;33.27;101747.03;5098220;27;45340;-59
2022/07/13 02:17:56;;;;;;;;;8.50;6.25;;;;;26.59;33.68;101739.78;5098595;27;45287;-59
2022/07/13 02:20:22;;;;;;;;;6.50;6.50;;;;;26.57;33.53;101733.69;5098895;27;45241;-60
2022/07/13 02:22:47;;;;;;;;;7.75;6.75;;;;;26.57;33.67;101739.16;5098319;27;47319;-59
2022/07/13 02:25:13;;;;;;;;;7.00;6.00;;;;;26.54;33.77;101727.88;5098164;27;45398;-59
2022/07/13 02:27:40;;;;;;;;;6.20;6.00;;;;;26.50;33.84;101732.13;5098496;27;45315;-59
2022/07/13 02:30:06;;;;;;;;;7.00;7.00;;;;;26.47;33.73;101733.41;5098488;27;45304;-60
2022/07/13 02:32:31;;;;;;;;;8.75;8.00;;;;;26.46;34.54;101731.72;5097448;27;45328;-60
2022/07/13 02:34:57;;;;;;;;;7.25;6.75;;;;;26.43;34.57;101725.91;5098357;27;45299;-61
2022/07/13 02:37:22;;;;;;;;;7.00;7.00;;;;;26.46;34.20;101726.28;5099129;27;45208;-60
2022/07/13 02:39:47;;;;;;;;;9.00;7.75;;;;;26.43;34.09;101724.00;5098652;27;45453;-59
2022/07/13 02:42:13;;;;;;;;;5.00;5.00;;;;;26.48;34.66;101726.91;5098067;27;46961;-60
2022/07/13 02:44:38;;;;;;;;;9.75;7.25;;;;;26.45;34.77;101716.44;5098437;27;45293;-61
2022/07/13 02:47:04;;;;;;;;;6.50;5.00;;;;;26.44;34.68;101722.09;5097973;27;45446;-59
2022/07/13 02:49:29;;;;;;;;;7.75;7.75;;;;;26.42;34.38;101727.78;5098412;27;45504;-60
2022/07/13 02:51:54;;;;;;;;;8.00;6.50;;;;;26.40;35.12;101713.53;5097828;27;45319;-60
2022/07/13 02:54:20;;;;;;;;;7.50;7.00;;;;;26.37;34.65;101713.97;5097962;27;45293;-60
2022/07/13 02:56:45;;;;;;;;;9.00;6.00;;;;;26.41;34.95;101717.09;5097909;27;45395;-59
2022/07/13 02:59:11;;;;;;;;;6.75;6.50;;;;;26.37;34.94;101720.25;5097985;27;45418;-60
2022/07/13 03:01:36;;;;;;;;;8.75;5.00;;;;;26.34;35.63;101718.00;5097728;27;46421;-60
2022/07/13 03:04:02;;;;;;;;;7.00;7.00;;;;;26.28;35.63;101724.38;5097768;27;45373;-60
2022/07/13 03:06:27;;;;;;;;;11.00;6.75;;;;;26.23;35.38;101717.94;5097777;27;45331;-58
2022/07/13 03:08:52;;;;;;;;;6.75;6.75;;;;;26.21;35.54;101725.50;5098070;27;45332;-60
2022/07/13 03:11:19;;;;;;;;;6.50;6.50;;;;;26.24;35.86;101723.16;5098000;27;45487;-61
2022/07/13 03:13:44;;;;;;;;;6.20;6.20;;;;;26.26;36.12;101728.41;5097655;27;45417;-62
2022/07/13 03:16:10;;;;;;;;;13.00;8.00;;;;;26.17;36.02;101714.22;5097498;27;45378;-61
2022/07/13 03:18:35;;;;;;;;;6.75;6.75;;;;;26.26;35.85;101729.22;5113684;27;45315;-59
2022/07/13 03:21:00;;;;;;;;;7.75;6.75;;;;;26.22;35.45;101727.19;5097277;27;47242;-60
2022/07/13 03:23:26;;;;;;;;;8.25;7.00;;;;;26.20;36.09;101723.84;5097515;27;45347;-59
2022/07/13 03:25:51;;;;;;;;;4.50;4.50;;;;;26.15;36.05;101729.13;5097954;27;45334;-60
2022/07/13 03:28:16;;;;;;;;;9.75;6.75;;;;;26.12;35.91;101724.97;5096174;27;45918;-60
2022/07/13 03:30:42;;;;;;;;;7.00;7.00;;;;;26.15;36.40;101723.69;5097207;27;46041;-59
2022/07/13 03:33:07;;;;;;;;;9.75;7.25;;;;;26.14;36.63;101725.59;5097107;27;45277;-60
2022/07/13 03:35:32;;;;;;;;;11.50;8.75;;;;;26.14;36.05;101728.31;5097389;27;45280;-59
2022/07/13 03:37:58;;;;;;;;;10.75;7.00;;;;;26.11;36.02;101724.13;5097700;27;45401;-59
2022/07/13 03:40:24;;;;;;;;;9.75;8.00;;;;;26.08;36.44;101726.47;5097138;27;46293;-60
2022/07/13 03:42:50;;;;;;;;;11.40;9.20;;;;;26.06;36.60;101725.88;5113039;27;45425;-60
2022/07/13 03:45:15;;;;;;;;;8.75;7.50;;;;;26.00;35.87;101714.00;5099466;27;45434;-59
2022/07/13 03:47:41;;;;;;;;;7.00;7.00;;;;;26.02;36.64;101719.22;5101132;27;45423;-60
2022/07/13 03:50:06;;;;;;;;;7.75;7.75;;;;;26.01;37.09;101726.56;5100924;27;45448;-58
2022/07/13 03:52:31;;;;;;;;;10.75;8.00;;;;;26.02;36.65;101727.38;5115996;27;45299;-61
2022/07/13 03:54:57;;;;;;;;;11.75;10.00;;;;;26.00;36.21;101732.22;5100701;27;45387;-60
2022/07/13 03:57:22;;;;;;;;;8.75;7.00;;;;;25.98;37.24;101735.19;5101077;27;45292;-60
2022/07/13 03:59:47;;;;;;;;;8.75;8.25;;;;;26.00;36.73;101729.50;5100593;27;46181;-59
2022/07/13 04:02:13;;;;;;;;;9.25;8.75;;;;;26.02;37.07;101730.13;5100459;27;45336;-60
2022/07/13 04:04:38;;;;;;;;;8.50;7.75;;;;;26.04;36.67;101722.53;5100925;27;45652;-59
2022/07/13 04:07:03;;;;;;;;;8.00;8.00;;;;;26.07;37.03;101722.91;5099317;27;45246;-59
2022/07/13 04:09:29;;;;;;;;;9.00;7.75;;;;;26.08;36.38;101735.50;5100433;27;45998;-58
2022/07/13 04:11:54;;;;;;;;;7.50;7.25;;;;;26.05;36.96;101724.22;5100506;27;45339;-60
2022/07/13 04:14:20;;;;;;;;;9.75;9.75;;;;;25.98;36.98;101728.91;5100895;27;45422;-58
2022/07/13 04:16:45;;;;;;;;;11.75;9.00;;;;;26.04;37.15;101733.44;5100448;27;45394;-59
2022/07/13 04:19:10;;;;;;;;;10.50;9.00;;;;;26.05;37.21;101732.41;5100481;27;46385;-60
2022/07/13 04:21:36;;;;;;;;;10.00;8.25;;;;;25.85;37.26;101703.44;5100453;27;45268;-60
2022/07/13 04:24:01;;;;;;;;;10.00;5.75;;;;;26.05;37.20;101732.41;5100486;27;45736;-59
2022/07/13 04:26:27;;;;;;;;;14.75;9.25;;;;;26.01;36.73;101734.75;5100573;27;45356;-60
2022/07/13 04:28:52;;;;;;;;;9.50;8.25;;;;;25.99;36.68;101731.38;5099920;27;45967;-59
2022/07/13 04:31:17;;;;;;;;;12.00;10.00;;;;;25.96;36.69;101729.13;5099918;27;45327;-59
2022/07/13 04:33:43;;;;;;;;;10.00;10.00;;;;;25.96;37.17;101731.84;5100288;27;45299;-58
2022/07/13 04:36:08;;;;;;;;;9.75;8.00;;;;;25.94;37.18;101728.50;5100215;27;45433;-60
2022/07/13 04:38:34;;;;;;;;;10.00;9.25;;;;;25.96;37.88;101729.13;5100094;27;46332;-61
2022/07/13 04:41:00;;;;;;;;;8.20;8.00;;;;;25.97;37.60;101719.06;5100398;27;45433;-61
2022/07/13 04:43:25;;;;;;;;;8.00;7.00;;;;;25.95;37.81;101724.72;5099979;27;45765;-60
2022/07/13 04:45:50;;;;;;;;;7.25;7.25;;;;;25.89;37.56;101712.00;5100441;27;45439;-58
2022/07/13 04:48:16;;;;;;;;;8.00;8.00;;;;;25.99;38.11;101725.94;5099670;27;45966;-61
2022/07/13 04:50:42;;;;;;;;;12.00;8.25;;;;;26.00;37.20;101724.03;5099924;27;45155;-61
2022/07/13 04:53:07;;;;;;;;;11.00;8.40;;;;;25.98;37.56;101715.25;5100105;27;45366;-58
2022/07/13 04:55:36;;;;;;;;;9.75;8.00;;;;;25.93;37.75;101713.22;5099712;27;45387;-61
2022/07/13 04:58:02;;;;;;;;;9.25;9.25;;;;;26.00;37.91;101721.31;5099644;27;45368;-60
2022/07/13 05:00:27;;;;;;;;;11.60;9.60;;;;;26.03;37.97;101723.59;5099808;27;45326;-60
2022/07/13 05:02:53;;;;;;;;;8.25;6.75;;;;;26.05;36.98;101725.03;5099676;27;45350;-61
2022/07/13 05:05:19;;;;;;;;;9.75;8.50;;;;;26.01;37.11;101718.38;5100178;27;45446;-61
2022/07/13 05:07:44;;;;;;;;;10.60;8.80;;;;;26.00;37.73;101724.91;5099522;27;46318;-59
2022/07/13 05:10:09;;;;;;;;;9.75;6.25;;;;;25.97;37.75;101724.50;5099539;27;45262;-60
2022/07/13 05:12:42;;;;;;;;;10.00;8.00;;;;;25.97;37.04;101716.31;5099547;27;45376;-60
2022/07/13 05:15:11;;;;;;;;;12.75;10.25;;;;;26.00;37.82;101726.75;5099672;27;45324;-59
2022/07/13 05:17:36;;;;;;;;;10.50;8.25;;;;;26.03;37.25;101731.78;5099216;27;46339;-59
2022/07/13 05:20:03;;;;;;;;;11.00;9.75;;;;;26.01;37.68;101726.56;5099285;27;45523;-60
2022/07/13 05:22:28;;;;;;;;;3.80;1.80;;;;;26.03;37.78;101734.50;5099708;27;45314;-60
2022/07/13 05:24:55;;;;;;;;;9.25;8.25;;;;;26.04;37.77;101731.56;5099555;27;45435;-60
2022/07/13 05:27:21;;;;;;;;;7.00;7.00;;;;;26.09;37.80;101730.88;5099240;27;45766;-59
2022/07/13 05:29:46;;;;;;;;;14.50;9.00;;;;;26.09;38.27;101729.00;5099742;27;45355;-62
2022/07/13 05:32:11;;;;;;;;;11.25;9.00;;;;;26.15;37.82;101734.59;5098883;27;45313;-60
2022/07/13 05:34:37;;;;;;;;;16.25;9.00;;;;;26.17;37.63;101730.59;5099791;27;45447;-59
2022/07/13 05:37:02;;;;;;;;;12.00;9.00;;;;;26.21;38.13;101729.09;5099027;27;45906;-61
2022/07/13 05:39:27;;;;;;;;;13.75;10.00;;;;;26.29;37.75;101741.56;5099224;27;45357;-62
2022/07/13 05:41:53;;;;;;;;;16.25;9.25;;;;;26.33;37.88;101748.22;5099073;27;45250;-60
2022/07/13 05:44:18;;;;;;;;;11.00;10.00;;;;;26.33;36.92;101734.59;5099373;27;45420;-61
2022/07/13 05:46:43;;;;;;;;;12.25;11.25;;;;;26.31;38.01;101734.00;5097539;27;46981;-61
2022/07/13 05:49:09;;;;;;;;;9.00;9.00;;;;;26.41;37.91;101738.91;5099032;27;45524;-61
2022/07/13 05:51:34;;;;;;;;;9.50;9.00;;;;;26.43;38.05;101734.91;5114857;27;45303;-61
2022/07/13 05:53:59;;;;;;;;;13.00;8.00;;;;;26.45;37.27;101730.06;5099358;27;45205;-61
2022/07/13 05:56:25;;;;;;;;;11.00;9.50;;;;;26.48;37.29;101740.53;5114532;27;46316;-62
2022/07/13 05:58:50;;;;;;;;;14.25;14.25;;;;;26.51;37.36;101742.81;5098680;27;45387;-62
2022/07/13 06:01:15;;;;;;;;;14.25;9.00;;;;;26.53;37.52;101743.41;5098990;27;45363;-61
2022/07/13 06:03:41;;;;;;;;;14.00;10.75;;;;;26.54;37.35;101746.97;5099018;27;45374;-62
2022/07/13 06:06:06;;;;;;;;;18.25;13.00;;;;;26.43;36.94;101734.06;5098394;27;46275;-61
2022/07/13 06:08:32;;;;;;;;;9.25;7.00;;;;;26.55;36.88;101744.03;5097357;27;45301;-62
2022/07/13 06:10:57;;;;;;;;;12.00;10.50;;;;;26.55;36.53;101730.38;5098634;27;45462;-62
2022/07/13 06:13:22;;;;;;;;;14.50;13.25;;;;;26.74;36.90;101750.28;5098870;27;45425;-62
2022/07/13 06:15:48;;;;;;;;;10.75;10.00;;;;;26.74;36.91;101735.81;5098639;27;45354;-61
2022/07/13 06:18:13;;;;;;;;;15.75;11.50;;;;;26.83;36.42;101748.91;5098129;27;45433;-61
2022/07/13 06:20:38;;;;;;;;;14.25;13.00;;;;;26.85;36.61;101735.88;5098905;27;45309;-61
2022/07/13 06:23:09;;;;;;;;;12.00;10.25;;;;;26.97;36.07;101748.72;5098661;27;45320;-61
2022/07/13 06:25:35;;;;;;;;;10.20;6.00;;;;;26.98;36.56;101751.22;5098363;27;46256;-61
2022/07/13 06:28:01;;;;;;;;;12.80;9.00;;;;;27.04;36.68;101749.47;5096907;27;45272;-61
2022/07/13 06:30:26;;;;;;;;;14.00;12.00;;;;;27.07;36.20;101755.31;5098523;27;45383;-61
2022/07/13 06:32:52;;;;;;;;;12.25;7.50;;;;;26.99;36.07;101743.88;5098178;27;45411;-62
2022/07/13 06:35:17;;;;;;;;;9.50;9.50;;;;;27.08;36.60;101748.75;5098345;27;45331;-60
2022/07/13 06:37:42;;;;;;;;;14.00;10.00;;;;;27.13;36.77;101744.53;5098277;27;45346;-58
2022/07/13 06:40:08;;;;;;;;;9.75;9.00;;;;;27.17;36.16;101729.34;5098419;27;45288;-61
2022/07/13 06:42:34;;;;;;;;;10.50;8.25;;;;;27.36;35.65;101747.34;5098290;27;45624;-62
2022/07/13 06:44:59;;;;;;;;;17.50;9.75;;;;;27.45;35.78;101745.94;5096602;27;45556;-63
2022/07/13 06:47:24;;;;;;;;;11.00;9.00;;;;;27.48;36.16;101723.63;5097824;27;45372;-62
2022/07/13 06:49:50;;;;;;;;;13.25;9.50;;;;;27.74;35.49;101743.41;5098026;27;45336;-61
2022/07/13 06:52:15;;;;;;;;;10.50;10.25;;;;;27.90;35.37;101733.66;5098195;27;45252;-60
2022/07/13 06:54:41;;;;;;;;;13.25;10.25;;;;;27.99;35.25;101748.63;5097887;27;45277;-60
2022/07/13 06:57:07;;;;;;;;;16.80;10.40;;;;;28.10;34.83;101748.59;5097747;27;45395;-58
2022/07/13 06:59:32;;;;;;;;;16.50;9.00;;;;;28.19;34.83;101746.38;5097919;27;45426;-60
2022/07/13 07:01:57;;;;;;;;;13.25;9.75;;;;;28.27;34.51;101734.19;5098102;27;45464;-61
2022/07/13 07:04:23;;;;;;;;;18.75;10.00;;;;;28.51;33.88;101744.06;5097532;27;47070;-60
2022/07/13 07:06:48;;;;;;;;;13.75;10.00;;;;;29.00;34.04;101755.47;5097681;27;45597;-59
2022/07/13 07:09:13;;;;;;;;;14.00;10.50;;;;;29.63;32.44;101750.84;5097860;27;45308;-63
2022/07/13 07:11:39;;;;;;;;;11.75;8.50;;;;;30.33;31.79;101739.25;5096377;27;45488;-63
2022/07/13 07:14:04;;;;;;;;;6.25;6.00;;;;;31.20;30.01;101732.03;5094478;27;46286;-63
2022/07/13 07:16:29;;;;;;;;;10.50;7.25;;;;;32.08;28.28;101742.63;5098062;27;45255;-59
2022/07/13 07:18:55;;;;;;;;;7.00;6.75;;;;;33.03;27.31;101736.97;5097025;27;45286;-62
2022/07/13 07:21:20;;;;;;;;;12.25;10.50;;;;;34.09;26.48;101745.50;5096521;27;45542;-65
2022/07/13 07:23:47;;;;;;;;;5.50;5.25;;;;;35.16;24.00;101729.25;5097783;27;45297;-64
2022/07/13 07:26:12;;;;;;;;;7.40;5.20;;;;;36.34;22.57;101736.41;5097324;27;45375;-65
2022/07/13 07:28:38;;;;;;;;;8.25;6.00;;;;;38.03;20.37;101740.16;5097802;27;45485;-66
2022/07/13 07:31:03;;;;;;;;;7.00;6.00;;;;;40.03;19.24;101735.09;5097892;27;45667;-64
2022/07/13 07:33:29;;;;;;;;;8.25;7.00;;;;;40.81;18.19;101740.06;5096761;27;47406;-66
2022/07/13 07:35:54;;;;;;;;;6.00;5.25;;;;;39.88;18.23;101741.94;5095437;27;45495;-67
2022/07/13 07:38:20;;;;;;;;;8.50;4.75;;;;;38.90;19.79;101750.28;5091610;27;45483;-66
2022/07/13 07:40:45;;;;;;;;;8.50;6.75;;;;;38.35;19.69;101747.59;5093799;27;45458;-64
2022/07/13 07:43:11;;;;;;;;;8.50;6.25;;;;;37.82;21.03;101743.28;5094448;27;45973;-65
2022/07/13 07:45:36;;;;;;;;;3.25;3.25;;;;;37.49;21.27;101739.72;5094515;27;45432;-63
2022/07/13 07:48:02;;;;;;;;;5.50;5.00;;;;;38.00;19.79;101737.97;5094819;27;45506;-64
2022/07/13 07:50:28;;;;;;;;;10.00;6.00;;;;;37.53;20.17;101734.41;5094444;27;45513;-62
2022/07/13 07:52:53;;;;;;;;;5.40;5.40;;;;;37.20;20.69;101739.91;5094719;27;45899;-65
2022/07/13 07:55:19;;;;;;;;;6.75;6.75;;;;;36.78;20.94;101736.09;5094534;27;45474;-65
2022/07/13 07:57:49;;;;;;;;;8.75;8.50;;;;;36.30;21.96;101736.16;5094606;27;45394;-64
2022/07/13 08:00:16;;;;;;;;;10.40;6.80;;;;;36.01;22.13;101738.19;5094678;27;45399;-64
2022/07/13 08:02:42;;;;;;;;;7.60;7.20;;;;;35.88;22.37;101734.16;5091919;27;46619;-64
2022/07/13 08:05:08;;;;;;;;;8.25;7.50;;;;;35.64;22.38;101739.63;5094247;27;45635;-65
2022/07/13 08:07:34;;;;;;;;;7.60;5.80;;;;;35.17;23.01;101732.81;5094364;27;45541;-62
2022/07/13 08:09:59;;;;;;;;;5.25;5.25;;;;;34.74;22.83;101732.53;5094359;27;45481;-62
2022/07/13 08:12:25;;;;;;;;;4.25;4.25;;;;;34.25;22.38;101736.06;5094007;27;45857;-64
2022/07/13 08:14:50;;;;;;;;;4.75;3.00;;;;;33.95;22.76;101735.00;5092738;27;45409;-59
2022/07/13 08:17:15;;;;;;;;;3.25;1.75;;;;;33.68;23.11;101734.53;5094293;27;45335;-64
2022/07/13 08:19:41;;;;;;;;;2.00;2.00;;;;;33.37;22.77;101739.19;5094365;27;45440;-60
2022/07/13 08:22:06;;;;;;;;;4.00;3.75;;;;;33.14;22.81;101713.81;5094530;27;45454;-62
2022/07/13 08:24:31;;;;;;;;;3.50;3.50;;;;;33.07;23.08;101716.00;5094322;27;45233;-61
2022/07/13 08:26:57;;;;;;;;;5.00;3.50;;;;;33.53;22.88;101725.16;5093712;27;45921;-62
2022/07/13 08:29:22;;;;;;;;;4.25;4.00;;;;;33.76;23.12;101733.97;5094168;27;45549;-61
2022/07/13 08:31:48;;;;;;;;;6.25;4.50;;;;;33.95;22.48;101732.25;5096054;27;45553;-64
2022/07/13 08:39:41;;;;;;;;;3.40;3.40;;;;;33.76;22.31;101734.78;5097516;27;45381;-63
2022/07/13 08:42:07;;;;;;;;;5.25;5.25;;;;;33.70;22.92;101729.53;5097158;27;45912;-64
2022/07/13 08:44:32;;;;;;;;;5.75;5.00;;;;;33.70;22.96;101727.59;5096786;27;45524;-64
2022/07/13 08:47:00;;;;;;;;;3.00;3.00;;;;;33.70;22.68;101733.13;5097324;27;45595;-65
2022/07/13 08:49:26;;;;;;;;;4.60;4.60;;;;;34.30;21.95;101726.91;5097257;27;45568;-64
2022/07/13 08:51:51;;;;;;;;;7.60;6.20;;;;;36.71;20.17;101727.34;5096820;27;46222;-65
2022/07/13 08:54:17;;;;;;;;;4.25;4.00;;;;;38.60;18.95;101726.72;5097093;27;45462;-66
2022/07/13 08:56:42;;;;;;;;;7.00;6.50;;;;;40.69;17.22;101710.03;5097021;27;46726;-65
2022/07/13 08:59:08;;;;;;;;;5.50;5.00;;;;;42.65;15.82;101712.03;5097279;27;45364;-65
2022/07/13 09:01:33;;;;;;;;;5.25;4.00;;;;;45.40;13.68;101703.31;5096599;27;45461;-64
2022/07/13 09:03:59;;;;;;;;;6.75;4.50;;;;;45.22;13.59;101712.09;5095108;27;45612;-64
2022/07/13 09:06:41;;;;;;;;;5.00;4.40;;;;;46.97;13.19;101724.69;5096888;27;45487;-64
2022/07/13 09:09:08;;;;;;;;;5.40;5.00;;;;;48.12;12.75;101707.78;5097218;27;45406;-63
2022/07/13 09:11:34;;;;;;;;;4.40;4.20;;;;;47.71;11.86;101718.84;5096663;27;47254;-66
2022/07/13 09:13:59;;;;;;;;;7.20;6.40;;;;;49.13;10.90;101695.75;5096771;27;45435;-61
2022/07/13 09:16:26;;;;;;;;;4.33;4.33;;;;;49.77;10.96;101701.16;5096795;27;45517;-62
2022/07/13 09:18:53;;;;;;;;;4.80;4.00;;;;;50.53;10.73;101708.91;5098980;27;45577;-64
2022/07/13 09:21:20;;;;;;;;;6.00;3.40;;;;;51.65;9.64;101715.22;5099270;27;46280;-64
2022/07/13 09:24:02;;;;;;;;;6.60;5.00;;;;;52.14;10.07;101716.38;5099082;27;45438;-61
2022/07/13 09:26:40;;;;;;;;;3.20;3.00;;;;;53.37;8.70;101716.56;5099599;27;45318;-61
2022/07/13 09:29:06;;;;;;;;;6.00;4.80;;;;;54.30;8.58;101710.78;5099671;27;45335;-60
2022/07/13 09:31:52;;;;;;;;;5.50;4.00;;;;;54.84;7.77;101716.59;5098966;27;46212;-61
2022/07/13 09:34:44;;;;;;;;;6.80;4.20;;;;;55.75;7.37;101708.94;5098822;27;45343;-61
2022/07/13 09:37:14;;;;;;;;;2.40;2.40;;;;;56.45;7.95;101710.84;5099219;27;45285;-59
2022/07/13 09:40:06;;;;;;;;;4.00;2.00;;;;;56.48;7.30;101707.91;5099485;27;45364;-59
2022/07/13 09:42:34;;;;;;;;;5.00;4.00;;;;;56.50;7.30;101713.97;5074963;28;45587;-60
2022/07/13 09:47:56;;;;;;;;;3.00;1.40;;;;;57.40;6.93;101698.38;5073494;28;45479;-60
2022/07/13 09:50:23;;;;;;;;;4.40;4.00;;;;;57.02;6.07;101712.38;5073772;28;45647;-59
2022/07/13 09:52:50;;;;;;;;;5.20;3.60;;;;;57.33;7.30;101706.34;5073237;28;46078;-60
2022/07/13 09:55:20;;;;;;;;;2.40;2.40;;;;;57.28;7.05;101701.94;5073090;28;46014;-60
2022/07/13 09:57:52;;;;;;;;;1.80;0.00;;;;;57.00;6.76;101707.09;5071118;28;45448;-59
2022/07/13 10:00:18;;;;;;;;;3.80;2.00;;;;;57.11;5.72;101701.16;5073457;27;46209;-60
2022/07/13 10:02:47;;;;;;;;;5.00;3.40;;;;;56.83;6.74;101701.81;5072646;28;47127;-59
2022/07/13 10:05:18;;;;;;;;;4.80;4.00;;;;;56.91;6.32;101700.41;5073155;27;45519;-62
2022/07/13 10:07:45;;;;;;;;;4.60;4.00;;;;;57.27;6.06;101702.38;5073060;27;45520;-59
2022/07/13 10:10:16;;;;;;;;;6.80;4.80;;;;;57.51;6.08;101697.28;5073116;28;45553;-61
2022/07/13 10:12:43;;;;;;;;;2.20;2.20;;;;;57.53;5.85;101698.44;5073139;28;45625;-59
2022/07/13 10:15:11;;;;;;;;;5.80;3.00;;;;;57.90;6.35;101696.97;5072815;27;45859;-59
2022/07/13 10:17:38;;;;;;;;;3.40;2.20;;;;;57.91;5.24;101697.81;5072777;28;45468;-59
2022/07/13 10:20:16;;;;;;;;;2.00;2.00;;;;;57.88;5.05;101704.44;5089572;27;45630;-61
2022/07/13 10:22:46;;;;;;;;;2.60;2.00;;;;;57.70;4.95;101694.31;5095719;27;46290;-61
2022/07/13 10:25:12;;;;;;;;;1.00;1.00;;;;;57.86;5.38;101689.75;5095369;27;45364;-59
2022/07/13 10:27:41;;;;;;;;;2.00;2.00;;;;;57.70;6.10;101697.16;5095692;27;45448;-60
2022/07/13 10:30:18;;;;;;;;;2.00;2.00;;;;;57.62;5.47;101697.78;5095785;27;45821;-60
2022/07/13 10:32:46;;;;;;;;;3.20;3.20;;;;;57.36;6.03;101686.22;5095132;27;47481;-63
2022/07/13 10:35:16;;;;;;;;;4.00;4.00;;;;;57.20;5.63;101695.59;5095536;27;45454;-60
2022/07/13 10:37:56;;;;;;;;;4.40;2.40;;;;;57.23;5.54;101689.00;5095639;27;45814;-60
2022/07/13 10:40:30;;;;;;;;;2.00;2.00;;;;;57.10;5.33;101681.56;5095570;27;45458;-61
2022/07/13 10:43:03;;;;;;;;;2.20;2.20;;;;;56.75;5.93;101692.63;5095547;27;46375;-60
2022/07/13 10:45:42;;;;;;;;;1.20;1.20;;;;;56.09;6.19;101687.91;5095361;27;45497;-60
2022/07/13 10:48:16;;;;;;;;;3.40;3.00;;;;;55.07;6.83;101681.59;5095425;27;45360;-59
2022/07/13 10:50:48;;;;;;;;;1.20;1.20;;;;;54.66;7.00;101688.31;5095229;27;45531;-60
2022/07/13 10:53:18;;;;;;;;;3.80;2.80;;;;;54.11;7.21;101686.56;5094478;27;46184;-60
2022/07/13 10:55:49;;;;;;;;;2.20;2.20;;;;;53.32;7.59;101669.50;5095267;27;45493;-59
2022/07/13 10:58:30;;;;;;;;;2.40;2.40;;;;;52.25;7.92;101682.28;5095308;27;45434;-59
2022/07/13 11:00:56;;;;;;;;;1.60;1.60;;;;;50.54;8.28;101688.72;5095297;27;45303;-59
2022/07/13 11:03:37;;;;;;;;;3.60;1.60;;;;;48.97;9.38;101674.19;5094751;27;45451;-60
2022/07/13 11:06:17;;;;;;;;;2.60;2.60;;;;;47.53;10.25;101677.41;5094659;27;45461;-60
2022/07/13 11:08:43;;;;;;;;;4.40;3.00;;;;;46.34;10.79;101684.72;5095092;27;45353;-61
2022/07/13 11:11:13;;;;;;;;;4.20;2.40;;;;;45.29;11.85;101680.53;5094945;27;45419;-62
2022/07/13 11:13:40;;;;;;;;;5.00;3.80;;;;;44.31;12.59;101678.97;5094639;27;46096;-60
2022/07/13 11:16:07;;;;;;;;;3.60;3.60;;;;;43.41;12.64;101681.97;5094755;27;45665;-59
2022/07/13 11:18:36;;;;;;;;;2.80;2.80;;;;;42.46;14.00;101672.47;5094916;27;45528;-62
2022/07/13 11:21:09;;;;;;;;;3.00;3.00;;;;;41.82;14.02;101671.56;5095188;27;45275;-62
2022/07/13 11:26:47;;;;;;;;;4.40;3.40;;;;;40.97;14.91;101668.69;5091906;27;45485;-60
2022/07/13 11:29:32;;;;;;;;;3.00;3.00;;;;;40.74;15.43;101673.59;5095028;27;45408;-61
2022/07/13 11:31:59;;;;;;;;;4.60;3.00;;;;;40.48;15.13;101668.00;5094706;27;45483;-62
2022/07/13 11:34:27;;;;;;;;;2.00;2.00;;;;;40.11;15.70;101664.66;5094696;27;45352;-62